Time;durP1;ratioP1;P1;durP2;ratioP2;P2;SDS_P1;SDS_P2;PMS_P1;PMS_P2;Temp;Humidity;BMP_temperature;BMP_pressure;BME280_temperature;BME280_humidity;BME280_pressure;Samples;Min_cycle;Max_cycle;Signal;HPM_P1;HPM_P2
2022/06/06 00:02:22;;;;;;;14.40;9.73;;;;;;;;;;4975206;28;20070;-49
2022/06/06 00:04:48;;;;;;;16.30;9.53;;;;;;;;;;4978474;28;20058;-51
2022/06/06 00:07:22;;;;;;;13.38;9.63;;;;;;;;;;4978661;28;20090;-44
2022/06/06 00:09:48;;;;;;;12.18;8.98;;;;;;;;;;4978065;28;20137;-46
2022/06/06 00:12:16;;;;;;;18.90;9.80;;;;;;;;;;4976390;28;20059;-63
2022/06/06 00:14:49;;;;;;;14.15;10.13;;;;;;;;;;4977864;28;20081;-64
2022/06/06 00:17:15;;;;;;;15.77;9.75;;;;;;;;;;4979295;28;20047;-63
2022/06/06 00:19:42;;;;;;;11.85;9.40;;;;;;;;;;4977606;28;20507;-63
2022/06/06 00:22:15;;;;;;;15.40;9.52;;;;;;;;;;4978146;28;20094;-63
2022/06/06 00:24:41;;;;;;;11.85;7.82;;;;;;;;;;4976420;28;20518;-64
2022/06/06 00:27:08;;;;;;;11.27;9.13;;;;;;;;;;4975744;28;20058;-51
2022/06/06 00:29:41;;;;;;;14.40;7.82;;;;;;;;;;4974187;28;20090;-46
2022/06/06 00:35:03;;;;;;;15.85;8.95;;;;;;;;;;4979997;28;20085;-45
2022/06/06 00:37:31;;;;;;;18.73;9.50;;;;;;;;;;4979070;28;20145;-46
2022/06/06 00:39:58;;;;;;;14.07;9.32;;;;;;;;;;4981698;28;20159;-46
2022/06/06 00:42:35;;;;;;;10.93;9.02;;;;;;;;;;4979491;28;20066;-45
2022/06/06 00:45:26;;;;;;;12.60;9.07;;;;;;;;;;4979803;28;20526;-63
2022/06/06 00:48:26;;;;;;;12.35;9.13;;;;;;;;;;4983264;28;20116;-45
2022/06/06 00:50:53;;;;;;;12.57;9.85;;;;;;;;;;4980381;28;20054;-49
2022/06/06 00:53:39;;;;;;;12.35;9.50;;;;;;;;;;4979707;28;20622;-50
2022/06/06 00:56:08;;;;;;;15.75;10.88;;;;;;;;;;4982172;28;20437;-50
2022/06/06 00:58:48;;;;;;;15.90;10.90;;;;;;;;;;4979081;28;20089;-53
2022/06/06 01:01:15;;;;;;;15.63;10.30;;;;;;;;;;4975507;28;20473;-53
2022/06/06 01:03:41;;;;;;;13.65;10.38;;;;;;;;;;4981082;28;20125;-50
2022/06/06 01:06:17;;;;;;;15.00;10.45;;;;;;;;;;4978516;28;20078;-42
2022/06/06 01:08:44;;;;;;;17.15;11.07;;;;;;;;;;4979624;28;20109;-46
2022/06/06 01:11:11;;;;;;;17.45;10.60;;;;;;;;;;4979346;28;20047;-46
2022/06/06 01:13:45;;;;;;;17.52;10.68;;;;;;;;;;4980311;28;20141;-50
2022/06/06 01:16:37;;;;;;;17.05;10.73;;;;;;;;;;4980200;28;20407;-47
2022/06/06 01:19:42;;;;;;;12.05;8.35;;;;;;;;;;4983350;28;20141;-46
2022/06/06 01:22:26;;;;;;;13.98;10.05;;;;;;;;;;4981822;28;20059;-50
2022/06/06 01:25:18;;;;;;;16.40;10.65;;;;;;;;;;4978947;28;20529;-50
2022/06/06 01:27:45;;;;;;;17.40;11.48;;;;;;;;;;4984385;28;20510;-47
2022/06/06 01:30:21;;;;;;;14.35;10.93;;;;;;;;;;4978572;28;20054;-45
2022/06/06 01:32:49;;;;;;;14.95;10.60;;;;;;;;;;4982737;28;20498;-48
2022/06/06 01:35:30;;;;;;;17.60;11.95;;;;;;;;;;4980267;28;20474;-49
2022/06/06 01:38:03;;;;;;;16.42;11.63;;;;;;;;;;4981720;28;20054;-41
2022/06/06 01:40:35;;;;;;;16.10;11.53;;;;;;;;;;4980943;28;20089;-48
2022/06/06 01:43:05;;;;;;;16.95;11.65;;;;;;;;;;4979858;28;20105;-44
2022/06/06 01:45:50;;;;;;;18.52;11.80;;;;;;;;;;4978004;28;20137;-47
2022/06/06 01:48:18;;;;;;;15.43;11.48;;;;;;;;;;4976679;28;20133;-46
2022/06/06 01:50:52;;;;;;;16.92;10.80;;;;;;;;;;4979211;28;20054;-47
2022/06/06 01:53:21;;;;;;;17.88;11.18;;;;;;;;;;4981011;28;20058;-45
2022/06/06 01:55:48;;;;;;;16.40;12.45;;;;;;;;;;4977534;28;20089;-46
2022/06/06 01:58:30;;;;;;;14.90;9.80;;;;;;;;;;4975261;28;20089;-45
2022/06/06 02:00:56;;;;;;;18.45;11.35;;;;;;;;;;4980507;28;20089;-51
2022/06/06 02:03:30;;;;;;;17.33;10.68;;;;;;;;;;4981227;28;20133;-61
2022/06/06 02:05:56;;;;;;;14.88;9.52;;;;;;;;;;4977678;28;20109;-48
2022/06/06 02:08:23;;;;;;;15.95;10.07;;;;;;;;;;4985157;28;20125;-45
2022/06/06 02:10:57;;;;;;;15.07;9.57;;;;;;;;;;4979417;28;20117;-46
2022/06/06 02:13:23;;;;;;;9.95;7.57;;;;;;;;;;4979674;28;20515;-48
2022/06/06 02:15:51;;;;;;;16.88;10.52;;;;;;;;;;4978004;28;20097;-49
2022/06/06 02:18:25;;;;;;;14.57;10.38;;;;;;;;;;4977542;28;20046;-47
2022/06/06 02:20:51;;;;;;;18.23;11.40;;;;;;;;;;4978715;28;20117;-47
2022/06/06 02:23:18;;;;;;;16.52;11.20;;;;;;;;;;4978843;28;20140;-51
2022/06/06 02:25:51;;;;;;;13.75;10.65;;;;;;;;;;4979474;28;20117;-42
2022/06/06 02:28:18;;;;;;;17.92;11.43;;;;;;;;;;4978664;28;20054;-45
2022/06/06 02:30:45;;;;;;;18.98;12.20;;;;;;;;;;4980429;28;20058;-48
2022/06/06 02:33:18;;;;;;;17.25;12.25;;;;;;;;;;4980955;28;20054;-48
2022/06/06 02:35:44;;;;;;;20.73;11.90;;;;;;;;;;4978419;28;20129;-46
2022/06/06 02:38:11;;;;;;;17.45;12.18;;;;;;;;;;4977144;28;20051;-45
2022/06/06 02:40:45;;;;;;;13.63;10.50;;;;;;;;;;4977034;28;20110;-63
2022/06/06 02:43:12;;;;;;;15.07;10.43;;;;;;;;;;4980555;28;20083;-61
2022/06/06 02:45:39;;;;;;;14.07;10.40;;;;;;;;;;4978816;28;20146;-62
2022/06/06 02:48:13;;;;;;;16.58;11.32;;;;;;;;;;4974333;28;20062;-62
2022/06/06 02:50:39;;;;;;;16.67;11.45;;;;;;;;;;4979145;28;20109;-62
2022/06/06 02:53:06;;;;;;;15.57;10.98;;;;;;;;;;4980498;28;20073;-62
2022/06/06 02:55:39;;;;;;;14.65;11.05;;;;;;;;;;4977886;28;20643;-63
2022/06/06 02:58:12;;;;;;;19.88;10.45;;;;;;;;;;4976557;28;20133;-42
2022/06/06 03:00:58;;;;;;;15.40;10.95;;;;;;;;;;4977804;28;20144;-62
2022/06/06 03:03:25;;;;;;;16.40;11.57;;;;;;;;;;4977702;28;20105;-43
2022/06/06 03:06:05;;;;;;;14.80;9.20;;;;;;;;;;4976776;28;20093;-43
2022/06/06 03:08:34;;;;;;;16.10;10.18;;;;;;;;;;4973860;28;20085;-45
2022/06/06 03:11:14;;;;;;;13.73;10.63;;;;;;;;;;4977970;28;20105;-43
2022/06/06 03:13:51;;;;;;;15.32;10.98;;;;;;;;;;4978515;28;20525;-45
2022/06/06 03:22:26;;;;;;;14.43;9.45;;;;;;;;;;4979083;28;20180;-49
2022/06/06 03:25:11;;;;;;;11.98;8.02;;;;;;;;;;4978791;28;20089;-45
2022/06/06 03:28:03;;;;;;;11.80;9.63;;;;;;;;;;4977661;28;20050;-48
2022/06/06 03:30:41;;;;;;;14.85;9.38;;;;;;;;;;4979327;28;20225;-49
2022/06/06 03:33:21;;;;;;;14.57;10.07;;;;;;;;;;4979886;28;20055;-46
2022/06/06 03:36:01;;;;;;;15.82;9.95;;;;;;;;;;4977595;28;20051;-48
2022/06/06 03:38:54;;;;;;;13.27;8.65;;;;;;;;;;4974389;28;20138;-44
2022/06/06 03:41:25;;;;;;;15.88;10.45;;;;;;;;;;4984474;28;20085;-50
2022/06/06 03:44:07;;;;;;;13.95;9.38;;;;;;;;;;4977380;28;20524;-49
2022/06/06 03:46:40;;;;;;;15.90;9.00;;;;;;;;;;4976242;28;20057;-46
2022/06/06 03:49:32;;;;;;;15.98;8.82;;;;;;;;;;4975857;28;20407;-49
2022/06/06 03:52:04;;;;;;;14.27;8.23;;;;;;;;;;4975958;28;20148;-53
2022/06/06 03:54:37;;;;;;;10.68;8.25;;;;;;;;;;4975205;28;20151;-50
2022/06/06 03:57:28;;;;;;;13.95;10.48;;;;;;;;;;4975600;28;20145;-62
2022/06/06 04:00:14;;;;;;;14.13;10.25;;;;;;;;;;4979381;28;20047;-52
2022/06/06 04:02:42;;;;;;;12.77;9.38;;;;;;;;;;4977756;28;20514;-47
2022/06/06 04:05:16;;;;;;;12.50;8.85;;;;;;;;;;4975250;28;20490;-48
2022/06/06 04:07:42;;;;;;;;;;;;;;;;;;4977165;28;20506;-51
2022/06/06 04:10:09;;;;;;;11.93;9.05;;;;;;;;;;4978978;28;19988;-46
2022/06/06 04:12:58;;;;;;;13.52;9.65;;;;;;;;;;4980302;28;20093;-48
2022/06/06 04:15:27;;;;;;;15.38;10.02;;;;;;;;;;4980271;28;20054;-46
2022/06/06 04:18:21;;;;;;;19.45;10.82;;;;;;;;;;4981712;28;20105;-46
2022/06/06 04:21:06;;;;;;;15.95;10.45;;;;;;;;;;4979472;28;20129;-45
2022/06/06 04:23:51;;;;;;;14.77;10.00;;;;;;;;;;4980124;28;20050;-48
2022/06/06 04:26:20;;;;;;;14.27;10.02;;;;;;;;;;4982908;28;20073;-42
2022/06/06 04:28:54;;;;;;;15.48;10.07;;;;;;;;;;4978643;28;20141;-42
2022/06/06 04:31:39;;;;;;;13.60;9.15;;;;;;;;;;4978087;28;20121;-42
2022/06/06 04:34:21;;;;;;;15.18;9.00;;;;;;;;;;4980041;28;20062;-62
2022/06/06 04:36:50;;;;;;;11.20;8.95;;;;;;;;;;4981044;28;20155;-48
2022/06/06 04:39:38;;;;;;;13.40;10.38;;;;;;;;;;4983721;28;20097;-50
2022/06/06 04:42:21;;;;;;;12.90;9.60;;;;;;;;;;4982904;28;20054;-49
2022/06/06 04:45:03;;;;;;;12.65;9.43;;;;;;;;;;4981868;28;20777;-50
2022/06/06 04:47:35;;;;;;;12.13;9.55;;;;;;;;;;4978339;28;20062;-51
2022/06/06 04:50:12;;;;;;;15.82;10.38;;;;;;;;;;4983843;28;20970;-51
2022/06/06 04:52:41;;;;;;;14.95;10.65;;;;;;;;;;4979834;28;20109;-48
2022/06/06 04:55:16;;;;;;;17.15;9.50;;;;;;;;;;4979406;28;20105;-53
2022/06/06 04:57:51;;;;;;;13.65;10.30;;;;;;;;;;4982358;28;20521;-63
2022/06/06 05:00:33;;;;;;;14.75;10.27;;;;;;;;;;4981876;28;20089;-62
2022/06/06 05:02:59;;;;;;;14.57;9.43;;;;;;;;;;4975655;28;20058;-63
2022/06/06 05:05:39;;;;;;;11.65;8.95;;;;;;;;;;4975441;28;20121;-62
2022/06/06 05:08:31;;;;;;;14.52;9.13;;;;;;;;;;4979108;28;20129;-62
2022/06/06 05:11:07;;;;;;;11.63;9.00;;;;;;;;;;4975444;28;20054;-63
2022/06/06 05:13:36;;;;;;;9.73;8.18;;;;;;;;;;4979164;28;20055;-57
2022/06/06 05:16:22;;;;;;;11.05;8.07;;;;;;;;;;4978963;28;20054;-45
2022/06/06 05:18:56;;;;;;;11.15;7.35;;;;;;;;;;4954105;28;20073;-42
2022/06/06 05:21:40;;;;;;;12.75;7.70;;;;;;;;;;4980244;28;20081;-44
2022/06/06 05:24:16;;;;;;;10.63;7.20;;;;;;;;;;4981858;28;20498;-45
2022/06/06 05:26:57;;;;;;;9.95;7.25;;;;;;;;;;4980444;28;20089;-46
2022/06/06 05:29:51;;;;;;;12.57;7.28;;;;;;;;;;4981055;28;20157;-46
2022/06/06 05:32:30;;;;;;;12.13;7.10;;;;;;;;;;4981874;28;20078;-50
2022/06/06 05:35:06;;;;;;;10.20;7.20;;;;;;;;;;4979065;28;20062;-44
2022/06/06 05:37:42;;;;;;;8.38;6.50;;;;;;;;;;4978155;28;20058;-44
2022/06/06 05:40:15;;;;;;;10.38;6.50;;;;;;;;;;4975927;28;20054;-50
2022/06/06 05:42:54;;;;;;;12.02;6.85;;;;;;;;;;4977334;28;20478;-49
2022/06/06 05:45:28;;;;;;;9.38;6.57;;;;;;;;;;4977089;28;20060;-46
2022/06/06 05:47:57;;;;;;;10.18;6.88;;;;;;;;;;4977964;28;20097;-46
2022/06/06 05:50:27;;;;;;;8.77;5.93;;;;;;;;;;4978368;28;20113;-56
2022/06/06 05:53:08;;;;;;;11.38;7.03;;;;;;;;;;4980283;28;20421;-54
2022/06/06 05:55:49;;;;;;;9.95;5.90;;;;;;;;;;4980997;28;20086;-53
2022/06/06 05:58:55;;;;;;;7.32;5.50;;;;;;;;;;4976745;28;20082;-45
2022/06/06 06:01:37;;;;;;;11.48;5.95;;;;;;;;;;4977567;28;20081;-49
2022/06/06 06:04:16;;;;;;;11.90;5.30;;;;;;;;;;4979613;28;20064;-49
2022/06/06 06:06:49;;;;;;;7.40;5.40;;;;;;;;;;4978195;28;20081;-52
2022/06/06 06:09:22;;;;;;;7.97;5.05;;;;;;;;;;4979137;28;20109;-62
2022/06/06 06:11:51;;;;;;;8.00;5.05;;;;;;;;;;4980039;28;20959;-48
2022/06/06 06:14:36;;;;;;;7.05;5.25;;;;;;;;;;4981852;28;20462;-51
2022/06/06 06:17:11;;;;;;;7.25;4.95;;;;;;;;;;4978761;28;20151;-48
2022/06/06 06:19:45;;;;;;;5.95;4.93;;;;;;;;;;4974913;28;20086;-50
2022/06/06 06:22:19;;;;;;;10.00;4.85;;;;;;;;;;4977292;28;20086;-51
2022/06/06 06:24:46;;;;;;;7.18;5.00;;;;;;;;;;4977997;28;20081;-50
2022/06/06 06:27:13;;;;;;;10.77;5.38;;;;;;;;;;4979112;28;20078;-43
2022/06/06 06:29:47;;;;;;;6.25;4.65;;;;;;;;;;4976781;28;20529;-59
2022/06/06 06:32:13;;;;;;;7.88;4.47;;;;;;;;;;4978891;28;20082;-62
2022/06/06 06:34:51;;;;;;;4.97;4.35;;;;;;;;;;4978914;28;20090;-62
2022/06/06 06:37:41;;;;;;;5.18;4.57;;;;;;;;;;4979245;28;20141;-62
2022/06/06 06:40:08;;;;;;;6.90;4.50;;;;;;;;;;4980050;28;20062;-62
2022/06/06 06:43:03;;;;;;;8.05;4.35;;;;;;;;;;4976757;28;20429;-62
2022/06/06 06:45:32;;;;;;;5.07;4.27;;;;;;;;;;4979344;28;20087;-63
2022/06/06 06:48:08;;;;;;;7.32;5.13;;;;;;;;;;4979755;28;20046;-55
2022/06/06 06:50:50;;;;;;;5.32;4.18;;;;;;;;;;4981860;28;20063;-49
2022/06/06 06:53:23;;;;;;;5.67;4.40;;;;;;;;;;4977097;28;20125;-50
2022/06/06 06:55:58;;;;;;;5.40;4.05;;;;;;;;;;4980804;28;20081;-49
2022/06/06 06:58:46;;;;;;;7.37;4.43;;;;;;;;;;4979666;28;20645;-53
2022/06/06 07:01:19;;;;;;;7.60;4.45;;;;;;;;;;4977765;28;20058;-53
2022/06/06 07:10:08;;;;;;;4.40;3.80;;;;;;;;;;4976691;28;20125;-49
2022/06/06 07:12:53;;;;;;;6.15;3.70;;;;;;;;;;4976882;28;20502;-51
2022/06/06 07:15:27;;;;;;;4.82;4.28;;;;;;;;;;4979080;28;20109;-49
2022/06/06 07:17:58;;;;;;;6.57;4.20;;;;;;;;;;4975978;28;20099;-54
2022/06/06 07:20:26;;;;;;;5.47;3.92;;;;;;;;;;4974789;28;20069;-54
2022/06/06 07:23:04;;;;;;;6.78;3.65;;;;;;;;;;4976899;28;20491;-54
2022/06/06 07:25:50;;;;;;;5.00;3.65;;;;;;;;;;4981174;28;20095;-53
2022/06/06 07:28:24;;;;;;;6.75;3.67;;;;;;;;;;4976898;28;20089;-59
2022/06/06 07:31:10;;;;;;;4.75;3.67;;;;;;;;;;4975815;28;20153;-60
2022/06/06 07:33:52;;;;;;;5.07;3.47;;;;;;;;;;4977123;28;20407;-60
2022/06/06 07:36:34;;;;;;;4.07;3.30;;;;;;;;;;4978766;28;20082;-60
2022/06/06 07:39:26;;;;;;;4.90;3.63;;;;;;;;;;4976362;28;20110;-59
2022/06/06 07:41:55;;;;;;;5.95;3.92;;;;;;;;;;4979036;28;20092;-59
2022/06/06 07:44:46;;;;;;;4.10;3.63;;;;;;;;;;4984285;28;20541;-43
2022/06/06 07:47:19;;;;;;;6.70;3.60;;;;;;;;;;4986814;28;20117;-45
2022/06/06 07:50:00;;;;;;;4.32;3.42;;;;;;;;;;4982648;28;20144;-48
2022/06/06 07:52:27;;;;;;;5.30;3.70;;;;;;;;;;4981653;28;20055;-50
2022/06/06 07:55:20;;;;;;;7.32;4.43;;;;;;;;;;4984275;28;20124;-50
2022/06/06 07:58:05;;;;;;;4.00;3.60;;;;;;;;;;4983774;28;20093;-49
2022/06/06 08:00:49;;;;;;;4.68;3.70;;;;;;;;;;4982786;28;20510;-51
2022/06/06 08:03:23;;;;;;;6.15;3.58;;;;;;;;;;4979533;28;20124;-48
2022/06/06 08:06:15;;;;;;;4.05;3.58;;;;;;;;;;4984984;28;20050;-57
2022/06/06 08:08:44;;;;;;;5.80;3.50;;;;;;;;;;4985432;28;20093;-44
2022/06/06 08:11:24;;;;;;;5.30;3.40;;;;;;;;;;4982630;28;20136;-46
2022/06/06 08:14:10;;;;;;;5.05;3.58;;;;;;;;;;4982923;28;20100;-45
2022/06/06 08:16:57;;;;;;;6.15;3.47;;;;;;;;;;4981752;28;20090;-44
2022/06/06 08:19:42;;;;;;;4.90;3.55;;;;;;;;;;4980766;28;20046;-46
2022/06/06 08:22:17;;;;;;;4.45;3.75;;;;;;;;;;4985861;28;22151;-49
2022/06/06 08:24:47;;;;;;;3.70;3.30;;;;;;;;;;4981269;28;20175;-48
2022/06/06 08:27:24;;;;;;;6.40;3.50;;;;;;;;;;4983803;28;20205;-44
2022/06/06 08:29:57;;;;;;;4.93;3.40;;;;;;;;;;4982186;28;20085;-43
2022/06/06 08:32:25;;;;;;;7.00;3.17;;;;;;;;;;4984483;28;20058;-46
2022/06/06 08:34:51;;;;;;;4.32;3.20;;;;;;;;;;4987050;28;20563;-44
2022/06/06 08:37:46;;;;;;;4.15;3.75;;;;;;;;;;4985652;28;20522;-49
2022/06/06 08:40:35;;;;;;;3.72;3.20;;;;;;;;;;4981473;28;20638;-47
2022/06/06 08:43:12;;;;;;;4.50;3.38;;;;;;;;;;4982434;28;20121;-55
2022/06/06 08:45:38;;;;;;;3.90;3.00;;;;;;;;;;4982543;28;20092;-60
2022/06/06 08:48:17;;;;;;;4.28;3.25;;;;;;;;;;4983003;28;20097;-59
2022/06/06 08:51:04;;;;;;;6.90;3.42;;;;;;;;;;4980312;28;20137;-60
2022/06/06 08:53:46;;;;;;;3.88;3.15;;;;;;;;;;4980705;28;20054;-59
2022/06/06 08:56:28;;;;;;;4.35;3.22;;;;;;;;;;4977674;28;20513;-60
2022/06/06 08:59:26;;;;;;;4.93;3.20;;;;;;;;;;4980840;28;20141;-59
2022/06/06 09:02:19;;;;;;;4.22;3.42;;;;;;;;;;4980632;28;20061;-59
2022/06/06 09:04:51;;;;;;;3.35;3.00;;;;;;;;;;4973674;28;20117;-60
2022/06/06 09:07:52;;;;;;;4.45;3.42;;;;;;;;;;4979535;28;20151;-60
2022/06/06 09:10:36;;;;;;;4.13;3.30;;;;;;;;;;4958962;28;20133;-59
2022/06/06 09:13:19;;;;;;;4.97;3.60;;;;;;;;;;4980521;28;20141;-59
2022/06/06 09:16:04;;;;;;;3.65;3.25;;;;;;;;;;4984461;28;20591;-59
2022/06/06 09:18:37;;;;;;;5.55;3.20;;;;;;;;;;4977646;28;20065;-60
2022/06/06 09:21:04;;;;;;;4.95;3.30;;;;;;;;;;4979142;28;20074;-52
2022/06/06 09:23:30;;;;;;;3.47;3.17;;;;;;;;;;4980714;28;20540;-60
2022/06/06 09:26:23;;;;;;;7.05;3.40;;;;;;;;;;4978782;28;20137;-62
2022/06/06 09:28:55;;;;;;;3.88;3.05;;;;;;;;;;4981610;28;20133;-61
2022/06/06 09:31:49;;;;;;;5.35;3.25;;;;;;;;;;4982364;28;20055;-61
2022/06/06 09:34:31;;;;;;;5.70;2.80;;;;;;;;;;4978657;28;20228;-61
2022/06/06 09:37:28;;;;;;;6.88;2.95;;;;;;;;;;4980192;28;20054;-62
2022/06/06 09:39:56;;;;;;;5.13;2.80;;;;;;;;;;4983182;28;20046;-70
2022/06/06 09:42:37;;;;;;;5.40;2.58;;;;;;;;;;4975449;28;20172;-56
2022/06/06 09:45:17;;;;;;;5.05;2.83;;;;;;;;;;4980375;28;20051;-53
2022/06/06 09:48:13;;;;;;;2.50;2.30;;;;;;;;;;4980827;28;20587;-55
2022/06/06 09:51:09;;;;;;;2.28;2.08;;;;;;;;;;4978540;28;20132;-56
2022/06/06 10:00:18;;;;;;;3.92;1.92;;;;;;;;;;4978090;28;20105;-49
2022/06/06 10:02:54;;;;;;;2.90;2.00;;;;;;;;;;4964547;28;20136;-49
2022/06/06 10:05:28;;;;;;;2.67;1.98;;;;;;;;;;4979165;28;20143;-51
2022/06/06 10:08:09;;;;;;;2.40;1.90;;;;;;;;;;4978122;28;20117;-52
2022/06/06 10:10:52;;;;;;;3.42;2.15;;;;;;;;;;4974696;28;20086;-49
2022/06/06 10:13:31;;;;;;;17.00;3.05;;;;;;;;;;4978125;28;20054;-52
2022/06/06 10:16:23;;;;;;;9.88;2.53;;;;;;;;;;4979867;28;20506;-60
2022/06/06 10:18:58;;;;;;;5.82;2.00;;;;;;;;;;4976901;28;20087;-49
2022/06/06 10:21:43;;;;;;;2.78;2.20;;;;;;;;;;4980452;28;20161;-55
2022/06/06 10:24:19;;;;;;;2.60;1.77;;;;;;;;;;4978400;28;20074;-55
2022/06/06 10:27:13;;;;;;;14.35;2.55;;;;;;;;;;4976786;28;20564;-55
2022/06/06 10:30:11;;;;;;;3.80;1.88;;;;;;;;;;4979998;28;20473;-53
2022/06/06 10:33:03;;;;;;;1.80;1.70;;;;;;;;;;4976513;28;21914;-55
2022/06/06 10:35:38;;;;;;;2.10;1.90;;;;;;;;;;4980281;28;20081;-59
2022/06/06 10:38:31;;;;;;;3.35;1.50;;;;;;;;;;4978720;28;20062;-52
2022/06/06 10:41:05;;;;;;;2.10;1.80;;;;;;;;;;4976834;28;20499;-63
2022/06/06 10:43:38;;;;;;;2.08;1.85;;;;;;;;;;4976990;28;20073;-63
2022/06/06 10:46:10;;;;;;;3.22;1.77;;;;;;;;;;4981050;28;20137;-63
2022/06/06 10:48:51;;;;;;;2.13;1.80;;;;;;;;;;4977934;28;20055;-64
2022/06/06 10:51:37;;;;;;;2.55;1.90;;;;;;;;;;4976486;28;20088;-63
2022/06/06 10:54:22;;;;;;;3.30;2.10;;;;;;;;;;4977108;28;20082;-58
2022/06/06 10:56:55;;;;;;;3.92;2.13;;;;;;;;;;4981430;28;20543;-72
2022/06/06 10:59:39;;;;;;;2.30;2.00;;;;;;;;;;4977217;28;20070;-49
2022/06/06 11:02:30;;;;;;;1.98;1.63;;;;;;;;;;4974534;28;20054;-49
2022/06/06 11:05:11;;;;;;;3.60;1.73;;;;;;;;;;4976079;28;20156;-49
2022/06/06 11:08:00;;;;;;;2.15;1.77;;;;;;;;;;4975843;28;20091;-49
2022/06/06 11:10:39;;;;;;;2.30;1.70;;;;;;;;;;4979817;28;20125;-51
2022/06/06 11:13:15;;;;;;;14.77;2.35;;;;;;;;;;4977359;28;20057;-63
2022/06/06 11:15:48;;;;;;;2.10;1.80;;;;;;;;;;4978600;28;20093;-57
2022/06/06 11:18:24;;;;;;;1.75;1.65;;;;;;;;;;4977597;28;20117;-63
2022/06/06 11:20:56;;;;;;;2.88;1.70;;;;;;;;;;4976596;28;20497;-63
2022/06/06 11:23:43;;;;;;;2.03;1.60;;;;;;;;;;4975380;28;20064;-64
2022/06/06 11:26:40;;;;;;;1.80;1.58;;;;;;;;;;4976106;28;20830;-64
2022/06/06 11:29:25;;;;;;;2.72;1.40;;;;;;;;;;4967488;28;20086;-63
2022/06/06 11:31:54;;;;;;;2.17;1.98;;;;;;;;;;4974637;28;20221;-63
2022/06/06 11:34:49;;;;;;;3.20;1.67;;;;;;;;;;4980001;28;20124;-59
2022/06/06 11:37:18;;;;;;;5.63;1.58;;;;;;;;;;4980932;28;20090;-53
2022/06/06 11:40:06;;;;;;;2.67;1.60;;;;;;;;;;4978884;28;20047;-53
2022/06/06 11:42:48;;;;;;;2.47;1.33;;;;;;;;;;4975551;28;20055;-53
2022/06/06 11:45:54;;;;;;;1.35;1.25;;;;;;;;;;4976499;28;20058;-54
2022/06/06 11:48:50;;;;;;;2.83;1.42;;;;;;;;;;4980186;28;20086;-51
2022/06/06 11:51:36;;;;;;;2.00;1.40;;;;;;;;;;4980349;28;20090;-52
2022/06/06 11:54:30;;;;;;;3.45;1.50;;;;;;;;;;4978521;28;20046;-58
2022/06/06 11:57:03;;;;;;;1.48;1.30;;;;;;;;;;4978913;28;20542;-59
2022/06/06 11:59:54;;;;;;;1.55;1.13;;;;;;;;;;4979288;28;20105;-59
2022/06/06 12:02:56;;;;;;;1.67;1.50;;;;;;;;;;4979574;28;20086;-59
2022/06/06 12:05:41;;;;;;;1.63;1.17;;;;;;;;;;4991265;28;20059;-59
2022/06/06 12:08:15;;;;;;;2.53;1.38;;;;;;;;;;4974152;28;20046;-59
2022/06/06 12:10:59;;;;;;;1.60;1.47;;;;;;;;;;4981904;28;20062;-52
2022/06/06 12:13:57;;;;;;;4.18;1.63;;;;;;;;;;4975911;28;20572;-70
2022/06/06 12:16:24;;;;;;;1.42;1.30;;;;;;;;;;4976249;28;20550;-64
2022/06/06 12:19:19;;;;;;;3.22;1.33;;;;;;;;;;4979201;28;20062;-64
2022/06/06 12:22:04;;;;;;;1.52;1.42;;;;;;;;;;4973038;28;20478;-64
2022/06/06 12:24:55;;;;;;;2.75;1.70;;;;;;;;;;4976763;28;20526;-64
2022/06/06 12:27:24;;;;;;;6.85;1.90;;;;;;;;;;4976892;28;21744;-65
2022/06/06 12:30:04;;;;;;;2.33;1.60;;;;;;;;;;4979320;28;20086;-51
2022/06/06 12:32:34;;;;;;;3.08;1.67;;;;;;;;;;4978871;28;20171;-51
2022/06/06 12:35:10;;;;;;;1.63;1.52;;;;;;;;;;4981492;28;20050;-51
2022/06/06 12:37:37;;;;;;;4.55;1.88;;;;;;;;;;4981482;28;20120;-51
2022/06/06 12:40:22;;;;;;;2.00;1.75;;;;;;;;;;4980110;28;20073;-51
2022/06/06 12:43:13;;;;;;;2.42;1.77;;;;;;;;;;4977485;28;20567;-54
2022/06/06 12:45:53;;;;;;;1.88;1.67;;;;;;;;;;4980474;28;20072;-53
2022/06/06 12:48:49;;;;;;;2.15;1.67;;;;;;;;;;4979333;28;20062;-56
2022/06/06 12:51:18;;;;;;;1.90;1.77;;;;;;;;;;4983439;28;20128;-66
2022/06/06 17:17:26;;;;;;;5.88;3.10;;;;;;;;;;4933202;28;20508;-67
2022/06/06 17:20:31;;;;;;;4.85;3.08;;;;;;;;;;4958925;28;20154;-50
2022/06/06 17:23:04;;;;;;;4.93;3.13;;;;;;;;;;4958709;28;20388;-48
2022/06/06 17:25:37;;;;;;;4.10;2.83;;;;;;;;;;4958688;28;20086;-49
2022/06/06 17:28:23;;;;;;;6.43;3.03;;;;;;;;;;4959713;28;20055;-48
2022/06/06 17:31:17;;;;;;;6.13;3.47;;;;;;;;;;4961607;28;20051;-53
2022/06/06 17:33:51;;;;;;;6.20;3.63;;;;;;;;;;4960181;28;20062;-49
2022/06/06 17:36:30;;;;;;;8.90;4.22;;;;;;;;;;4959044;28;20468;-55
2022/06/06 17:39:14;;;;;;;6.28;3.53;;;;;;;;;;4957575;28;20046;-56
2022/06/06 17:42:06;;;;;;;5.53;3.67;;;;;;;;;;4959415;28;20082;-58
2022/06/06 17:44:37;;;;;;;4.13;3.33;;;;;;;;;;4960030;28;20186;-52
2022/06/06 17:47:43;;;;;;;3.60;3.17;;;;;;;;;;4958446;28;20058;-51
2022/06/06 17:50:29;;;;;;;5.72;3.40;;;;;;;;;;4958833;28;20062;-51
2022/06/06 17:53:21;;;;;;;5.28;3.80;;;;;;;;;;4958724;28;20438;-65
2022/06/06 17:55:50;;;;;;;7.45;4.03;;;;;;;;;;4958978;28;20659;-50
2022/06/06 17:58:32;;;;;;;4.22;3.03;;;;;;;;;;4960249;28;20145;-70
2022/06/06 18:01:06;;;;;;;5.40;3.45;;;;;;;;;;4961837;28;20143;-72
2022/06/06 18:03:39;;;;;;;8.82;3.60;;;;;;;;;;4956349;28;20129;-71
2022/06/06 18:06:33;;;;;;;5.35;3.95;;;;;;;;;;4956829;28;20089;-71
2022/06/06 18:09:17;;;;;;;5.53;3.47;;;;;;;;;;4956127;28;20138;-71
2022/06/06 18:12:06;;;;;;;5.55;3.67;;;;;;;;;;4956792;28;20114;-71
2022/06/06 18:14:53;;;;;;;4.70;4.18;;;;;;;;;;4958248;28;20174;-65
2022/06/06 18:17:40;;;;;;;5.07;3.97;;;;;;;;;;4958271;28;20145;-50
2022/06/06 18:20:33;;;;;;;5.47;4.00;;;;;;;;;;4995527;28;20058;-50
2022/06/06 18:23:01;;;;;;;7.03;4.30;;;;;;;;;;4993340;28;20509;-50
2022/06/06 18:25:36;;;;;;;6.35;4.03;;;;;;;;;;4997439;28;20085;-51
2022/06/06 18:28:16;;;;;;;7.10;3.83;;;;;;;;;;4993109;28;20102;-47
2022/06/06 18:30:50;;;;;;;6.00;3.58;;;;;;;;;;4996616;28;20095;-51
2022/06/06 18:33:17;;;;;;;;;;;;;;;;;;4993761;28;20116;-60
2022/06/06 18:35:44;;;;;;;5.90;4.20;;;;;;;;;;4995812;28;19929;-57
2022/06/06 18:38:23;;;;;;;7.50;4.80;;;;;;;;;;4994046;28;20560;-58
2022/06/06 18:40:55;;;;;;;5.72;4.43;;;;;;;;;;4993498;28;20592;-59
2022/06/06 18:43:36;;;;;;;9.80;4.30;;;;;;;;;;4996087;28;20082;-57
2022/06/06 18:46:11;;;;;;;6.93;4.30;;;;;;;;;;4995696;28;20064;-57
2022/06/06 18:49:05;;;;;;;10.15;4.25;;;;;;;;;;4996022;28;20054;-58
2022/06/06 18:51:40;;;;;;;4.53;3.92;;;;;;;;;;4998049;28;20058;-56
2022/06/06 18:54:21;;;;;;;7.10;4.22;;;;;;;;;;4997154;28;20145;-45
2022/06/06 18:56:51;;;;;;;9.43;4.32;;;;;;;;;;4999812;28;20410;-44
2022/06/06 18:59:25;;;;;;;;;;;;;;;;;;4993580;28;20089;-45
2022/06/06 19:01:54;;;;;;;6.70;4.30;;;;;;;;;;4996238;28;19925;-44
2022/06/06 19:04:22;;;;;;;5.40;4.38;;;;;;;;;;4994766;28;20528;-47
2022/06/06 19:07:01;;;;;;;7.18;4.95;;;;;;;;;;4995152;28;20136;-44
2022/06/06 19:09:30;;;;;;;7.80;5.05;;;;;;;;;;4999118;28;20474;-51
2022/06/06 19:12:09;;;;;;;5.75;4.78;;;;;;;;;;5000653;28;20098;-69
2022/06/06 19:14:45;;;;;;;8.75;5.60;;;;;;;;;;4997139;28;20177;-65
2022/06/06 19:17:20;;;;;;;9.73;4.80;;;;;;;;;;4995471;28;20210;-64
2022/06/06 19:19:46;;;;;;;;;;;;;;;;;;4995117;28;20100;-64
2022/06/06 19:22:20;;;;;;;7.90;4.65;;;;;;;;;;4998514;28;20728;-63
2022/06/06 19:24:58;;;;;;;5.78;4.53;;;;;;;;;;4997041;28;20698;-64
2022/06/06 19:27:33;;;;;;;8.80;4.97;;;;;;;;;;4994823;28;20763;-65
2022/06/06 19:30:12;;;;;;;6.32;4.90;;;;;;;;;;4995197;28;20115;-49
2022/06/06 19:32:39;;;;;;;8.98;4.88;;;;;;;;;;4995694;28;20084;-68
2022/06/06 19:35:17;;;;;;;6.88;4.75;;;;;;;;;;4998436;28;20100;-68
2022/06/06 19:37:50;;;;;;;11.02;5.43;;;;;;;;;;4993469;28;20100;-68
2022/06/06 19:40:17;;;;;;;7.18;5.00;;;;;;;;;;4979059;28;20131;-67
2022/06/06 19:42:46;;;;;;;7.88;4.90;;;;;;;;;;4997860;28;20093;-68
2022/06/06 19:45:36;;;;;;;9.68;5.30;;;;;;;;;;4989671;28;20116;-67
2022/06/06 19:48:04;;;;;;;7.85;5.22;;;;;;;;;;4995621;28;20054;-48
2022/06/06 19:50:41;;;;;;;8.00;4.93;;;;;;;;;;4995018;28;20450;-47
2022/06/06 19:53:16;;;;;;;6.88;5.20;;;;;;;;;;4991150;28;20551;-49
2022/06/06 19:55:55;;;;;;;8.63;5.28;;;;;;;;;;4996107;28;20089;-52
2022/06/06 19:58:22;;;;;;;7.22;4.93;;;;;;;;;;4993601;28;20565;-49
2022/06/06 20:00:49;;;;;;;7.15;5.45;;;;;;;;;;4997231;28;20100;-47
2022/06/06 20:03:25;;;;;;;6.18;4.93;;;;;;;;;;4991946;28;20145;-48
2022/06/06 20:05:59;;;;;;;7.10;5.68;;;;;;;;;;4997358;28;20085;-47
2022/06/06 20:08:35;;;;;;;8.80;5.35;;;;;;;;;;4994037;28;20391;-49
2022/06/06 20:11:07;;;;;;;10.27;5.57;;;;;;;;;;4981386;28;20057;-50
2022/06/06 20:13:48;;;;;;;9.30;5.80;;;;;;;;;;5000686;28;20108;-51
2022/06/06 20:16:20;;;;;;;8.48;5.43;;;;;;;;;;4995102;28;20096;-51
2022/06/06 20:19:02;;;;;;;6.35;5.28;;;;;;;;;;4993654;28;20211;-55
2022/06/06 20:21:35;;;;;;;7.70;5.22;;;;;;;;;;4996998;28;20085;-55
2022/06/06 20:24:17;;;;;;;7.03;5.38;;;;;;;;;;4994450;28;20053;-50
2022/06/06 20:26:43;;;;;;;7.63;5.65;;;;;;;;;;4993495;28;20093;-48